createdAt,value
2022-10-31T00:01:25.294Z,59.88
2022-10-31T00:03:53.708Z,58.60
2022-10-31T00:06:20.993Z,58.17
2022-10-31T00:08:52.490Z,59.28
2022-10-31T00:11:19.253Z,58.90
2022-10-31T00:13:46.008Z,59.78
2022-10-31T00:16:17.870Z,61.28
2022-10-31T00:18:45.078Z,57.22
2022-10-31T00:21:11.831Z,58.70
2022-10-31T00:23:38.618Z,62.17
2022-10-31T00:26:07.859Z,59.85
2022-10-31T00:28:35.016Z,57.90
2022-10-31T00:31:02.708Z,57.42
2022-10-31T00:33:29.844Z,58.47
2022-10-31T00:35:57.041Z,57.22
2022-10-31T00:38:24.041Z,57.65
2022-10-31T00:40:50.847Z,57.80
2022-10-31T00:43:17.695Z,59.92
2022-10-31T00:45:44.613Z,57.55
2022-10-31T00:48:11.607Z,60.03
2022-10-31T00:50:38.637Z,56.40
2022-10-31T00:53:05.905Z,56.97
2022-10-31T00:55:32.636Z,57.05
2022-10-31T00:57:59.678Z,54.80
2022-10-31T01:00:27.098Z,54.90
2022-10-31T01:02:54.042Z,55.42
2022-10-31T01:05:21.257Z,54.28
2022-10-31T01:07:48.246Z,55.42
2022-10-31T01:10:15.356Z,53.10
2022-10-31T01:12:46.197Z,54.35
2022-10-31T01:15:17.055Z,53.72
2022-10-31T01:17:43.960Z,56.90
2022-10-31T01:20:13.597Z,55.22
2022-10-31T01:22:40.318Z,48.95
2022-10-31T01:25:07.755Z,51.40
2022-10-31T01:27:34.790Z,55.00
2022-10-31T01:30:01.578Z,55.08
2022-10-31T01:32:29.914Z,54.10
2022-10-31T01:34:56.765Z,55.15
2022-10-31T01:37:23.537Z,54.85
2022-10-31T01:39:50.445Z,55.92
2022-10-31T01:42:21.520Z,55.22
2022-10-31T01:44:58.833Z,57.10
2022-10-31T01:47:38.793Z,57.15
2022-10-31T01:50:13.847Z,55.00
2022-10-31T01:52:45.554Z,56.65
2022-10-31T01:55:33.843Z,57.03
2022-10-31T01:58:05.749Z,56.50
2022-10-31T02:00:32.927Z,56.92
2022-10-31T02:03:01.093Z,56.92
2022-10-31T02:05:30.642Z,57.67
2022-10-31T02:08:15.642Z,59.00
2022-10-31T02:10:44.164Z,54.33
2022-10-31T02:13:13.925Z,57.60
2022-10-31T02:15:49.890Z,57.90
2022-10-31T02:18:17.691Z,58.97
2022-10-31T02:20:59.242Z,59.80
2022-10-31T02:23:50.903Z,59.38
2022-10-31T02:26:39.270Z,59.25
2022-10-31T02:29:32.314Z,61.08
2022-10-31T02:32:27.272Z,59.28
2022-10-31T02:35:14.299Z,59.55
2022-10-31T02:38:24.177Z,58.35
2022-10-31T02:41:36.041Z,55.25
2022-10-31T02:44:56.665Z,56.38
2022-10-31T02:47:29.188Z,55.25
2022-10-31T02:50:04.247Z,50.92
2022-10-31T02:52:34.800Z,51.97
2022-10-31T02:55:34.840Z,55.70
2022-10-31T02:58:12.158Z,55.95
2022-10-31T03:01:01.521Z,55.85
2022-10-31T03:03:37.853Z,54.85
2022-10-31T03:06:33.479Z,54.05
2022-10-31T03:09:03.278Z,52.65
2022-10-31T03:11:38.547Z,53.35
2022-10-31T03:14:15.736Z,54.08
2022-10-31T03:16:47.652Z,54.53
2022-10-31T03:19:29.731Z,54.42
2022-10-31T03:22:04.399Z,53.15
2022-10-31T03:24:37.101Z,53.30
2022-10-31T03:27:08.693Z,51.78
2022-10-31T03:29:37.748Z,51.63
2022-10-31T03:32:13.652Z,49.42
2022-10-31T03:34:44.855Z,50.55
2022-10-31T03:37:15.517Z,51.97
2022-10-31T03:39:45.392Z,50.58
2022-10-31T03:42:18.655Z,47.25
2022-10-31T03:44:58.911Z,49.35
2022-10-31T03:47:27.961Z,50.85
2022-10-31T03:49:55.367Z,52.55
2022-10-31T03:52:22.135Z,53.35
2022-10-31T03:55:01.124Z,51.75
2022-10-31T03:57:45.762Z,53.42
2022-10-31T04:00:14.955Z,56.35
2022-10-31T04:03:15.762Z,59.33
2022-10-31T04:05:48.415Z,57.35
2022-10-31T04:08:20.331Z,59.10
2022-10-31T04:10:50.204Z,58.47
2022-10-31T04:13:25.245Z,55.78
2022-10-31T04:16:00.398Z,56.47
2022-10-31T04:18:27.531Z,54.80
2022-10-31T04:21:08.190Z,57.03
2022-10-31T04:23:37.008Z,57.65
2022-10-31T04:26:24.337Z,59.20
2022-10-31T04:28:51.700Z,58.13
2022-10-31T04:31:18.565Z,59.25
2022-10-31T04:33:47.996Z,60.83
2022-10-31T04:36:15.149Z,61.33
2022-10-31T04:38:42.793Z,59.72
2022-10-31T04:41:21.853Z,60.72
2022-10-31T04:43:55.187Z,61.22
2022-10-31T04:46:22.344Z,60.67
2022-10-31T04:48:49.827Z,60.08
2022-10-31T04:51:17.596Z,60.60
2022-10-31T04:53:44.706Z,61.63
2022-10-31T04:56:30.170Z,59.80
2022-10-31T04:59:03.063Z,58.55
2022-10-31T05:01:40.299Z,60.08
2022-10-31T05:04:07.228Z,58.17
2022-10-31T05:06:34.003Z,57.88
2022-10-31T05:09:00.811Z,55.42
2022-10-31T05:11:27.681Z,50.88
2022-10-31T05:13:59.988Z,52.83
2022-10-31T05:16:46.988Z,52.08
2022-10-31T05:19:52.036Z,57.50
2022-10-31T05:22:49.041Z,58.05
2022-10-31T05:25:17.108Z,56.67
2022-10-31T05:27:46.657Z,56.15
2022-10-31T05:30:16.619Z,55.83
2022-10-31T05:32:50.387Z,55.85
2022-10-31T05:35:40.516Z,55.85
2022-10-31T05:38:30.135Z,52.30
2022-10-31T05:41:03.698Z,53.03
2022-10-31T05:43:33.327Z,55.10
2022-10-31T05:46:02.342Z,54.90
2022-10-31T05:49:04.538Z,55.30
2022-10-31T05:51:49.592Z,58.25
2022-10-31T05:54:16.477Z,53.50
2022-10-31T05:56:45.736Z,53.20
2022-10-31T05:59:12.961Z,55.53
2022-10-31T06:01:40.626Z,56.92
2022-10-31T06:04:17.785Z,56.10
2022-10-31T06:06:44.800Z,55.08
2022-10-31T06:09:11.669Z,55.97
2022-10-31T06:11:38.587Z,53.13
2022-10-31T06:14:06.878Z,55.03
2022-10-31T06:16:59.970Z,59.60
2022-10-31T06:19:45.349Z,56.78
2022-10-31T06:22:19.004Z,57.65
2022-10-31T06:24:45.817Z,55.88
2022-10-31T06:27:27.552Z,51.53
2022-10-31T06:29:55.243Z,52.55
2022-10-31T06:32:31.083Z,56.55
2022-10-31T06:34:58.787Z,52.85
2022-10-31T06:37:25.742Z,52.92
2022-10-31T06:39:55.506Z,54.13
2022-10-31T06:42:22.356Z,51.20
2022-10-31T06:44:49.268Z,51.30
2022-10-31T06:48:15.587Z,50.90
2022-10-31T06:51:01.392Z,50.80
2022-10-31T06:53:30.679Z,51.00
2022-10-31T06:55:58.216Z,50.75
2022-10-31T06:58:25.894Z,50.38
2022-10-31T07:00:56.377Z,48.90
2022-10-31T07:03:23.432Z,51.40
2022-10-31T07:05:50.257Z,51.80
2022-10-31T07:08:17.110Z,51.42
2022-10-31T07:10:44.486Z,52.00
2022-10-31T07:13:14.249Z,51.13
2022-10-31T07:15:45.706Z,50.63
2022-10-31T07:18:13.652Z,52.10
2022-10-31T07:20:41.241Z,52.60
2022-10-31T07:23:12.457Z,52.83
2022-10-31T07:25:40.840Z,53.63
2022-10-31T07:28:16.029Z,52.90
2022-10-31T07:30:56.854Z,54.03
2022-10-31T07:33:24.468Z,52.40
2022-10-31T07:36:09.686Z,51.25
2022-10-31T07:38:41.326Z,52.25
2022-10-31T07:41:08.236Z,53.33
2022-10-31T07:43:40.146Z,51.83
2022-10-31T07:46:18.825Z,53.60
2022-10-31T07:49:04.005Z,53.30
2022-10-31T07:51:49.360Z,54.33
2022-10-31T07:54:34.605Z,52.83
2022-10-31T07:57:01.670Z,52.53
2022-10-31T07:59:29.282Z,53.88
2022-10-31T08:01:56.138Z,52.83
2022-10-31T08:04:31.975Z,51.15
2022-10-31T08:07:18.075Z,51.88
2022-10-31T08:09:56.048Z,52.35
2022-10-31T08:12:26.973Z,51.20
2022-10-31T08:14:54.381Z,52.13
2022-10-31T08:17:21.244Z,51.28
2022-10-31T08:19:56.453Z,50.90
2022-10-31T08:22:31.502Z,51.50
2022-10-31T08:24:59.496Z,51.42
2022-10-31T08:27:26.329Z,51.80
2022-10-31T08:29:55.742Z,52.67
2022-10-31T08:32:23.696Z,52.55
2022-10-31T08:34:53.108Z,51.22
2022-10-31T08:37:59.049Z,51.85
2022-10-31T08:40:29.493Z,55.17
2022-10-31T08:42:58.548Z,51.67
2022-10-31T08:45:25.492Z,51.70
2022-10-31T08:47:52.430Z,52.40
2022-10-31T08:50:19.548Z,52.85
2022-10-31T08:53:04.291Z,52.13
2022-10-31T08:55:36.395Z,51.42
2022-10-31T08:58:08.919Z,51.10
2022-10-31T09:00:41.992Z,51.25
2022-10-31T09:03:23.944Z,51.60
2022-10-31T09:05:51.939Z,52.72
2022-10-31T09:08:18.900Z,51.13
2022-10-31T09:10:47.941Z,53.05
2022-10-31T09:13:21.322Z,53.67
2022-10-31T09:16:08.323Z,52.17
2022-10-31T09:18:36.025Z,52.65
2022-10-31T09:21:02.907Z,53.45
2022-10-31T09:23:31.178Z,51.63
2022-10-31T09:26:02.228Z,53.50
2022-10-31T09:28:36.350Z,53.45
2022-10-31T09:31:11.860Z,52.00
2022-10-31T09:33:57.354Z,52.97
2022-10-31T09:36:36.861Z,50.42
2022-10-31T09:39:05.250Z,52.38
2022-10-31T09:41:57.528Z,49.88
2022-10-31T09:44:51.749Z,50.65
2022-10-31T09:47:41.509Z,51.05
2022-10-31T09:50:41.357Z,50.55
2022-10-31T09:53:35.102Z,50.70
2022-10-31T09:56:05.825Z,52.03
2022-10-31T09:58:40.369Z,51.72
2022-10-31T10:01:13.013Z,49.38
2022-10-31T10:03:47.915Z,50.00
2022-10-31T10:06:51.928Z,49.08
2022-10-31T10:09:37.534Z,49.88
2022-10-31T10:12:35.840Z,47.28
2022-10-31T10:15:38.926Z,49.22
2022-10-31T10:18:26.905Z,46.30
2022-10-31T10:21:08.940Z,46.40
2022-10-31T10:24:06.391Z,46.38
2022-10-31T10:26:38.604Z,44.45
2022-10-31T10:29:37.793Z,43.03
2022-10-31T10:32:21.912Z,41.75
2022-10-31T10:34:53.406Z,42.08
2022-10-31T10:37:35.009Z,41.30
2022-10-31T10:40:18.300Z,39.47
2022-10-31T10:43:15.207Z,37.90
2022-10-31T10:46:07.767Z,38.17
2022-10-31T10:48:45.356Z,35.90
2022-10-31T10:51:38.852Z,32.88
2022-10-31T10:54:15.086Z,31.25
2022-10-31T10:57:18.780Z,30.70
2022-10-31T10:59:47.013Z,31.45
2022-10-31T11:02:23.488Z,29.55
2022-10-31T11:04:53.889Z,28.90
2022-10-31T11:07:21.047Z,28.45
2022-10-31T11:09:48.062Z,28.55
2022-10-31T11:12:34.423Z,27.13
2022-10-31T11:15:08.232Z,27.23
2022-10-31T11:17:39.528Z,28.40
2022-10-31T11:20:18.102Z,26.42
2022-10-31T11:22:47.929Z,28.15
2022-10-31T11:25:32.911Z,26.60
2022-10-31T11:28:09.986Z,27.83
2022-10-31T11:30:47.315Z,26.45
2022-10-31T11:33:30.164Z,27.35
2022-10-31T11:35:58.476Z,25.83
2022-10-31T11:38:34.289Z,23.95
2022-10-31T11:41:11.634Z,23.95
2022-10-31T11:43:39.803Z,23.15
2022-10-31T11:46:12.627Z,24.92
2022-10-31T11:48:39.558Z,23.63
2022-10-31T11:51:06.398Z,24.83
2022-10-31T11:53:35.219Z,25.48
2022-10-31T11:56:11.065Z,23.70
2022-10-31T11:58:37.896Z,23.77
2022-10-31T12:01:04.855Z,24.17
2022-10-31T12:03:52.839Z,22.02
2022-10-31T12:06:26.159Z,23.02
2022-10-31T12:08:52.972Z,23.13
2022-10-31T12:11:46.394Z,23.95
2022-10-31T12:14:50.363Z,23.88
2022-10-31T12:17:25.739Z,22.85
2022-10-31T12:20:00.423Z,22.67
2022-10-31T12:23:06.087Z,22.48
2022-10-31T12:25:44.691Z,22.00
2022-10-31T12:28:54.103Z,19.45
2022-10-31T12:31:46.183Z,23.30
2022-10-31T12:34:21.994Z,20.38
2022-10-31T12:37:07.487Z,20.50
2022-10-31T12:39:40.368Z,20.65
2022-10-31T12:42:45.616Z,19.50
2022-10-31T12:45:32.680Z,19.10
2022-10-31T12:48:16.909Z,18.50
2022-10-31T12:50:58.666Z,19.02
2022-10-31T12:53:43.638Z,20.20
2022-10-31T12:56:40.877Z,19.77
2022-10-31T12:59:43.760Z,21.17
2022-10-31T13:02:30.382Z,22.17
2022-10-31T13:05:04.895Z,20.85
2022-10-31T13:07:44.540Z,19.80
2022-10-31T13:10:29.498Z,18.77
2022-10-31T13:13:03.875Z,19.58
2022-10-31T13:15:42.138Z,20.52
2022-10-31T13:18:15.796Z,20.33
2022-10-31T13:20:47.673Z,19.55
2022-10-31T13:23:51.995Z,19.80
2022-10-31T13:26:34.159Z,18.70
2022-10-31T13:29:03.592Z,16.85
2022-10-31T13:31:30.868Z,16.95
2022-10-31T13:34:03.253Z,16.52
2022-10-31T13:36:49.678Z,18.58
2022-10-31T13:39:32.758Z,18.20
2022-10-31T13:42:00.622Z,18.30
2022-10-31T13:44:31.324Z,18.77
2022-10-31T13:47:01.354Z,19.13
2022-10-31T13:49:31.190Z,21.05
2022-10-31T13:52:14.721Z,22.98
2022-10-31T13:54:56.631Z,25.20
2022-10-31T13:57:44.031Z,25.58
2022-10-31T14:00:19.862Z,23.08
2022-10-31T14:02:51.823Z,23.67
2022-10-31T14:05:27.759Z,24.10
2022-10-31T14:07:56.360Z,25.70
2022-10-31T14:10:32.141Z,25.60
2022-10-31T14:13:16.955Z,25.55
2022-10-31T14:15:58.179Z,26.52
2022-10-31T14:18:38.732Z,25.65
2022-10-31T14:21:30.421Z,27.02
2022-10-31T14:23:58.411Z,25.30
2022-10-31T14:26:29.250Z,25.30
2022-10-31T14:29:20.276Z,24.83
2022-10-31T14:32:16.063Z,24.27
2022-10-31T14:34:52.998Z,24.00
2022-10-31T14:37:38.451Z,23.73
2022-10-31T14:40:23.161Z,23.10
2022-10-31T14:42:59.424Z,23.10
2022-10-31T14:45:47.882Z,22.67
2022-10-31T14:48:26.124Z,24.45
2022-10-31T14:50:55.554Z,25.50
2022-10-31T14:53:34.524Z,26.00
2022-10-31T14:56:06.625Z,24.77
2022-10-31T14:58:45.107Z,27.00
2022-10-31T15:01:40.662Z,27.13
2022-10-31T15:04:23.682Z,25.70
2022-10-31T15:07:00.569Z,28.02
2022-10-31T15:09:31.713Z,27.17
2022-10-31T15:12:17.823Z,29.05
2022-10-31T15:14:44.627Z,28.45
2022-10-31T15:17:12.732Z,29.75
2022-10-31T15:19:39.893Z,27.83
2022-10-31T15:22:06.937Z,29.88
2022-10-31T15:24:39.761Z,30.70
2022-10-31T15:27:15.195Z,32.35
2022-10-31T15:29:57.641Z,31.52
2022-10-31T15:32:29.842Z,32.15
2022-10-31T15:34:57.959Z,33.85
2022-10-31T15:37:26.718Z,33.67
2022-10-31T15:39:53.751Z,34.47
2022-10-31T15:42:31.409Z,34.22
2022-10-31T15:45:05.714Z,35.15
2022-10-31T15:47:34.347Z,33.50
2022-10-31T15:50:03.947Z,34.25
2022-10-31T15:52:47.941Z,34.30
2022-10-31T15:55:22.178Z,33.55
2022-10-31T15:57:52.552Z,33.85
2022-10-31T16:00:30.297Z,33.10
2022-10-31T16:03:07.902Z,33.30
2022-10-31T16:05:50.539Z,36.13
2022-10-31T16:08:29.971Z,34.30
2022-10-31T16:10:57.820Z,32.72
2022-10-31T16:13:34.316Z,34.15
2022-10-31T16:16:33.079Z,33.35
2022-10-31T16:18:53.849Z,32.15
2022-10-31T16:21:33.167Z,34.50
2022-10-31T16:24:06.246Z,33.08
2022-10-31T16:26:34.640Z,33.08
2022-10-31T16:29:08.522Z,32.65
2022-10-31T16:31:41.042Z,33.53
2022-10-31T16:34:26.075Z,35.45
2022-10-31T16:36:56.463Z,33.88
2022-10-31T16:39:23.322Z,33.10
2022-10-31T16:41:53.485Z,36.35
2022-10-31T16:44:24.756Z,33.67
2022-10-31T16:47:10.994Z,36.08
2022-10-31T16:49:38.217Z,33.65
2022-10-31T16:52:05.948Z,36.08
2022-10-31T16:54:33.058Z,34.25
2022-10-31T16:57:01.412Z,32.20
2022-10-31T16:59:28.934Z,31.42
2022-10-31T17:01:56.852Z,30.63
2022-10-31T17:04:23.870Z,31.58
2022-10-31T17:06:50.758Z,31.77
2022-10-31T17:09:17.795Z,32.42
2022-10-31T17:11:49.701Z,29.67
2022-10-31T17:14:18.913Z,30.65
2022-10-31T17:16:45.712Z,32.83
2022-10-31T17:19:13.000Z,33.28
2022-10-31T17:21:40.646Z,31.08
2022-10-31T17:24:12.288Z,32.67
2022-10-31T17:26:39.153Z,32.30
2022-10-31T17:29:05.996Z,32.83
2022-10-31T17:31:36.368Z,36.42
2022-10-31T17:34:05.293Z,37.83
2022-10-31T17:36:35.637Z,39.05
2022-10-31T17:39:05.407Z,39.22
2022-10-31T17:41:32.356Z,40.47
2022-10-31T17:44:00.058Z,41.75
2022-10-31T17:46:28.408Z,40.55
2022-10-31T17:48:55.323Z,42.70
2022-10-31T17:51:22.334Z,40.15
2022-10-31T17:53:49.154Z,40.33
2022-10-31T17:56:16.066Z,43.40
2022-10-31T17:58:42.928Z,45.70
2022-10-31T18:01:15.217Z,46.28
2022-10-31T18:03:42.358Z,47.25
2022-10-31T18:06:10.558Z,49.30
2022-10-31T18:08:39.796Z,45.60
2022-10-31T18:11:14.838Z,48.83
2022-10-31T18:13:42.404Z,48.55
2022-10-31T18:16:16.261Z,51.53
2022-10-31T18:18:43.526Z,52.78
2022-10-31T18:21:10.988Z,55.53
2022-10-31T18:23:37.792Z,55.83
2022-10-31T18:26:04.925Z,55.25
2022-10-31T18:28:31.828Z,57.80
2022-10-31T18:31:00.653Z,59.38
2022-10-31T18:33:28.460Z,57.30
2022-10-31T18:35:55.836Z,59.22
2022-10-31T18:38:23.058Z,63.45
2022-10-31T18:40:53.530Z,63.15
2022-10-31T18:43:20.403Z,60.67
2022-10-31T18:45:49.389Z,62.35
2022-10-31T18:48:18.057Z,60.53
2022-10-31T18:50:45.117Z,62.15
2022-10-31T18:53:11.937Z,61.30
2022-10-31T18:55:43.992Z,58.63
2022-10-31T18:58:14.431Z,61.15
2022-10-31T19:00:41.387Z,60.05
2022-10-31T19:03:08.380Z,59.10
2022-10-31T19:05:35.345Z,59.40
2022-10-31T19:08:02.310Z,59.15
2022-10-31T19:10:29.413Z,61.20
2022-10-31T19:12:56.292Z,62.70
2022-10-31T19:15:23.191Z,56.92
2022-10-31T19:17:50.031Z,59.38
2022-10-31T19:20:17.036Z,62.57
2022-10-31T19:22:44.077Z,60.03
2022-10-31T19:25:11.326Z,62.90
2022-10-31T19:27:39.062Z,64.00
2022-10-31T19:30:06.967Z,61.93
2022-10-31T19:32:34.040Z,62.87
2022-10-31T19:35:01.049Z,63.73
2022-10-31T19:37:27.951Z,64.00
2022-10-31T19:39:54.926Z,63.53
2022-10-31T19:42:21.740Z,69.20
2022-10-31T19:44:48.675Z,68.45
2022-10-31T19:47:15.694Z,65.15
2022-10-31T19:49:42.640Z,63.45
2022-10-31T19:52:09.559Z,64.53
2022-10-31T19:54:36.505Z,67.00
2022-10-31T19:57:03.481Z,66.65
2022-10-31T19:59:33.911Z,67.82
2022-10-31T20:02:03.769Z,67.43
2022-10-31T20:04:30.651Z,70.00
2022-10-31T20:06:57.575Z,72.28
2022-10-31T20:09:25.065Z,71.18
2022-10-31T20:11:51.969Z,69.78
2022-10-31T20:14:18.935Z,72.05
2022-10-31T20:16:46.565Z,68.15
2022-10-31T20:19:13.899Z,66.63
2022-10-31T20:21:41.437Z,66.57
2022-10-31T20:24:09.959Z,70.43
2022-10-31T20:26:39.088Z,69.55
2022-10-31T20:29:05.995Z,67.80
2022-10-31T20:31:35.803Z,72.47
2022-10-31T20:34:02.724Z,73.35
2022-10-31T20:36:30.840Z,71.35
2022-10-31T20:38:58.656Z,71.80
2022-10-31T20:41:26.428Z,70.03
2022-10-31T20:43:53.542Z,70.10
2022-10-31T20:46:25.708Z,73.20
2022-10-31T20:48:54.015Z,69.57
2022-10-31T20:51:28.051Z,75.70
2022-10-31T20:53:59.389Z,66.75
2022-10-31T20:56:28.152Z,71.03
2022-10-31T20:58:56.317Z,71.25
2022-10-31T21:01:26.188Z,77.68
2022-10-31T21:03:53.617Z,74.95
2022-10-31T21:06:23.026Z,76.78
2022-10-31T21:08:51.462Z,73.63
2022-10-31T21:11:21.358Z,72.32
2022-10-31T21:13:49.286Z,71.63
2022-10-31T21:16:19.512Z,69.43
2022-10-31T21:18:47.560Z,67.90
2022-10-31T21:21:18.088Z,70.50
2022-10-31T21:23:45.503Z,74.38
2022-10-31T21:26:18.522Z,71.68
2022-10-31T21:28:45.408Z,70.38
2022-10-31T21:31:15.729Z,68.75
2022-10-31T21:33:43.568Z,70.40
2022-10-31T21:36:11.082Z,68.85
2022-10-31T21:38:38.610Z,66.95
2022-10-31T21:41:11.610Z,64.57
2022-10-31T21:43:42.351Z,68.13
2022-10-31T21:46:16.985Z,69.53
2022-10-31T21:48:44.306Z,68.03
2022-10-31T21:51:23.386Z,64.40
2022-10-31T21:54:09.402Z,67.25
2022-10-31T21:56:36.928Z,66.72
2022-10-31T21:59:04.910Z,65.30
2022-10-31T22:01:31.958Z,67.07
2022-10-31T22:03:59.749Z,64.32
2022-10-31T22:06:27.900Z,64.47
2022-10-31T22:08:54.842Z,64.97
2022-10-31T22:11:22.090Z,64.47
2022-10-31T22:13:50.134Z,66.18
2022-10-31T22:16:19.502Z,65.80
2022-10-31T22:18:47.221Z,63.08
2022-10-31T22:21:16.491Z,63.78
2022-10-31T22:23:44.337Z,65.28
2022-10-31T22:26:14.349Z,62.00
2022-10-31T22:28:47.219Z,63.05
2022-10-31T22:31:16.717Z,61.00
2022-10-31T22:33:44.344Z,66.00
2022-10-31T22:36:13.560Z,62.90
2022-10-31T22:38:41.451Z,64.43
2022-10-31T22:41:10.487Z,61.00
2022-10-31T22:43:37.326Z,61.97
2022-10-31T22:46:06.402Z,62.92
2022-10-31T22:48:38.720Z,61.05
2022-10-31T22:51:19.860Z,60.70
2022-10-31T22:53:47.361Z,54.38
2022-10-31T22:56:21.864Z,56.90
2022-10-31T22:58:48.933Z,58.42
2022-10-31T23:01:19.241Z,56.33
2022-10-31T23:03:47.476Z,58.85
2022-10-31T23:06:17.407Z,57.92
2022-10-31T23:08:44.949Z,54.38
2022-10-31T23:11:25.548Z,52.90
2022-10-31T23:14:10.039Z,54.65
2022-10-31T23:16:41.877Z,50.95
2022-10-31T23:19:10.864Z,52.28
2022-10-31T23:21:59.221Z,51.88
2022-10-31T23:24:25.997Z,51.05
2022-10-31T23:27:09.539Z,52.97
2022-10-31T23:29:56.929Z,52.90
2022-10-31T23:32:35.292Z,49.80
2022-10-31T23:35:07.695Z,50.15
2022-10-31T23:37:37.048Z,49.88
2022-10-31T23:40:04.901Z,48.20
2022-10-31T23:42:31.829Z,46.92
2022-10-31T23:44:58.597Z,47.30
2022-10-31T23:47:25.392Z,47.55
2022-10-31T23:49:52.178Z,49.05
2022-10-31T23:52:19.304Z,48.92
